sensor_id;sensor_type;location;lat;lon;timestamp;P1;durP1;ratioP1;P2;durP2;ratioP2
72941;SDS011;69665;55.822;37.330;2023-07-13T00:02:24;4.75;;;1.75;;
72941;SDS011;69665;55.822;37.330;2023-07-13T00:05:08;4.20;;;1.55;;
72941;SDS011;69665;55.822;37.330;2023-07-13T00:08:11;4.45;;;1.90;;
72941;SDS011;69665;55.822;37.330;2023-07-13T00:10:55;2.88;;;1.42;;
72941;SDS011;69665;55.822;37.330;2023-07-13T00:13:39;4.78;;;1.92;;
72941;SDS011;69665;55.822;37.330;2023-07-13T00:16:24;6.63;;;2.10;;
72941;SDS011;69665;55.822;37.330;2023-07-13T00:19:07;7.07;;;2.10;;
72941;SDS011;69665;55.822;37.330;2023-07-13T00:21:51;4.90;;;1.65;;
72941;SDS011;69665;55.822;37.330;2023-07-13T00:24:39;4.88;;;1.65;;
72941;SDS011;69665;55.822;37.330;2023-07-13T00:27:25;5.57;;;1.98;;
72941;SDS011;69665;55.822;37.330;2023-07-13T00:30:10;5.53;;;1.73;;
72941;SDS011;69665;55.822;37.330;2023-07-13T00:32:55;5.60;;;2.10;;
72941;SDS011;69665;55.822;37.330;2023-07-13T00:35:39;5.45;;;1.77;;
72941;SDS011;69665;55.822;37.330;2023-07-13T00:38:42;5.45;;;2.00;;
72941;SDS011;69665;55.822;37.330;2023-07-13T00:41:25;5.38;;;1.77;;
72941;SDS011;69665;55.822;37.330;2023-07-13T00:44:13;4.40;;;1.98;;
72941;SDS011;69665;55.822;37.330;2023-07-13T00:47:16;4.72;;;1.90;;
72941;SDS011;69665;55.822;37.330;2023-07-13T00:50:00;5.10;;;1.80;;
72941;SDS011;69665;55.822;37.330;2023-07-13T00:52:47;4.70;;;1.65;;
72941;SDS011;69665;55.822;37.330;2023-07-13T00:55:50;5.50;;;2.08;;
72941;SDS011;69665;55.822;37.330;2023-07-13T00:58:35;5.50;;;1.92;;
72941;SDS011;69665;55.822;37.330;2023-07-13T01:01:19;4.15;;;1.75;;
72941;SDS011;69665;55.822;37.330;2023-07-13T01:04:03;5.50;;;1.98;;
72941;SDS011;69665;55.822;37.330;2023-07-13T01:06:47;3.97;;;1.58;;
72941;SDS011;69665;55.822;37.330;2023-07-13T01:09:49;5.22;;;1.80;;
72941;SDS011;69665;55.822;37.330;2023-07-13T01:12:33;3.85;;;1.60;;
72941;SDS011;69665;55.822;37.330;2023-07-13T01:18:22;4.47;;;1.90;;
72941;SDS011;69665;55.822;37.330;2023-07-13T01:21:06;5.43;;;1.85;;
72941;SDS011;69665;55.822;37.330;2023-07-13T01:23:49;6.50;;;2.13;;
72941;SDS011;69665;55.822;37.330;2023-07-13T01:26:33;4.72;;;2.13;;
72941;SDS011;69665;55.822;37.330;2023-07-13T01:29:17;4.45;;;2.10;;
72941;SDS011;69665;55.822;37.330;2023-07-13T01:32:01;3.67;;;1.73;;
72941;SDS011;69665;55.822;37.330;2023-07-13T01:34:45;5.28;;;1.83;;
72941;SDS011;69665;55.822;37.330;2023-07-13T01:37:30;4.55;;;2.20;;
72941;SDS011;69665;55.822;37.330;2023-07-13T01:40:20;5.25;;;2.10;;
72941;SDS011;69665;55.822;37.330;2023-07-13T01:43:04;4.78;;;1.85;;
72941;SDS011;69665;55.822;37.330;2023-07-13T01:45:48;5.18;;;2.15;;
72941;SDS011;69665;55.822;37.330;2023-07-13T01:48:32;5.38;;;2.10;;
72941;SDS011;69665;55.822;37.330;2023-07-13T01:51:16;5.78;;;2.53;;
72941;SDS011;69665;55.822;37.330;2023-07-13T01:54:01;5.18;;;2.13;;
72941;SDS011;69665;55.822;37.330;2023-07-13T01:56:45;5.47;;;1.85;;
72941;SDS011;69665;55.822;37.330;2023-07-13T01:59:28;4.32;;;2.17;;
72941;SDS011;69665;55.822;37.330;2023-07-13T02:02:13;4.15;;;1.90;;
72941;SDS011;69665;55.822;37.330;2023-07-13T02:05:15;5.15;;;2.03;;
72941;SDS011;69665;55.822;37.330;2023-07-13T02:07:59;4.50;;;1.88;;
72941;SDS011;69665;55.822;37.330;2023-07-13T02:10:43;5.93;;;1.70;;
72941;SDS011;69665;55.822;37.330;2023-07-13T02:13:27;4.57;;;1.92;;
72941;SDS011;69665;55.822;37.330;2023-07-13T02:16:11;6.07;;;2.08;;
72941;SDS011;69665;55.822;37.330;2023-07-13T02:18:56;4.82;;;2.08;;
72941;SDS011;69665;55.822;37.330;2023-07-13T02:21:40;5.07;;;2.50;;
72941;SDS011;69665;55.822;37.330;2023-07-13T02:24:24;5.30;;;2.05;;
72941;SDS011;69665;55.822;37.330;2023-07-13T02:27:09;5.85;;;2.00;;
72941;SDS011;69665;55.822;37.330;2023-07-13T02:29:53;5.53;;;2.20;;
72941;SDS011;69665;55.822;37.330;2023-07-13T02:32:37;6.25;;;2.22;;
72941;SDS011;69665;55.822;37.330;2023-07-13T02:35:21;5.00;;;1.90;;
72941;SDS011;69665;55.822;37.330;2023-07-13T02:41:08;6.13;;;2.40;;
72941;SDS011;69665;55.822;37.330;2023-07-13T02:43:53;6.00;;;2.08;;
72941;SDS011;69665;55.822;37.330;2023-07-13T02:46:37;4.70;;;1.85;;
72941;SDS011;69665;55.822;37.330;2023-07-13T02:49:22;5.00;;;2.03;;
72941;SDS011;69665;55.822;37.330;2023-07-13T02:52:25;4.45;;;1.80;;
72941;SDS011;69665;55.822;37.330;2023-07-13T02:55:09;5.88;;;2.15;;
72941;SDS011;69665;55.822;37.330;2023-07-13T02:57:53;4.25;;;2.10;;
72941;SDS011;69665;55.822;37.330;2023-07-13T03:00:38;6.38;;;2.17;;
72941;SDS011;69665;55.822;37.330;2023-07-13T03:03:24;5.68;;;2.10;;
72941;SDS011;69665;55.822;37.330;2023-07-13T03:06:08;5.70;;;1.90;;
72941;SDS011;69665;55.822;37.330;2023-07-13T03:09:11;4.95;;;2.03;;
72941;SDS011;69665;55.822;37.330;2023-07-13T03:12:15;7.10;;;2.28;;
72941;SDS011;69665;55.822;37.330;2023-07-13T03:14:59;6.45;;;2.53;;
72941;SDS011;69665;55.822;37.330;2023-07-13T03:17:43;6.38;;;2.53;;
72941;SDS011;69665;55.822;37.330;2023-07-13T03:20:27;5.65;;;2.10;;
72941;SDS011;69665;55.822;37.330;2023-07-13T03:23:11;5.00;;;2.00;;
72941;SDS011;69665;55.822;37.330;2023-07-13T03:26:02;4.38;;;1.98;;
72941;SDS011;69665;55.822;37.330;2023-07-13T03:28:46;6.38;;;2.25;;
72941;SDS011;69665;55.822;37.330;2023-07-13T03:31:32;4.72;;;1.83;;
72941;SDS011;69665;55.822;37.330;2023-07-13T03:34:16;5.15;;;2.20;;
72941;SDS011;69665;55.822;37.330;2023-07-13T03:37:00;7.38;;;2.17;;
72941;SDS011;69665;55.822;37.330;2023-07-13T03:39:44;6.47;;;2.72;;
72941;SDS011;69665;55.822;37.330;2023-07-13T03:42:29;6.22;;;2.35;;
72941;SDS011;69665;55.822;37.330;2023-07-13T03:45:13;6.85;;;2.17;;
72941;SDS011;69665;55.822;37.330;2023-07-13T03:47:57;4.97;;;2.15;;
72941;SDS011;69665;55.822;37.330;2023-07-13T03:50:41;5.13;;;2.10;;
72941;SDS011;69665;55.822;37.330;2023-07-13T03:53:25;6.00;;;2.08;;
72941;SDS011;69665;55.822;37.330;2023-07-13T03:56:09;6.18;;;2.35;;
72941;SDS011;69665;55.822;37.330;2023-07-13T03:58:53;5.10;;;2.40;;
72941;SDS011;69665;55.822;37.330;2023-07-13T04:01:37;6.88;;;3.13;;
72941;SDS011;69665;55.822;37.330;2023-07-13T04:04:21;6.47;;;3.38;;
72941;SDS011;69665;55.822;37.330;2023-07-13T04:07:05;6.97;;;3.13;;
72941;SDS011;69665;55.822;37.330;2023-07-13T04:10:27;6.22;;;3.00;;
72941;SDS011;69665;55.822;37.330;2023-07-13T04:13:11;6.53;;;2.45;;
72941;SDS011;69665;55.822;37.330;2023-07-13T04:15:55;4.32;;;2.20;;
72941;SDS011;69665;55.822;37.330;2023-07-13T04:18:39;6.38;;;2.42;;
72941;SDS011;69665;55.822;37.330;2023-07-13T04:21:23;7.03;;;2.10;;
72941;SDS011;69665;55.822;37.330;2023-07-13T04:24:07;3.83;;;1.65;;
72941;SDS011;69665;55.822;37.330;2023-07-13T04:26:51;5.18;;;2.35;;
72941;SDS011;69665;55.822;37.330;2023-07-13T04:29:38;4.53;;;1.90;;
72941;SDS011;69665;55.822;37.330;2023-07-13T04:32:22;5.68;;;2.05;;
72941;SDS011;69665;55.822;37.330;2023-07-13T04:35:06;5.80;;;1.80;;
72941;SDS011;69665;55.822;37.330;2023-07-13T04:37:50;5.40;;;1.80;;
72941;SDS011;69665;55.822;37.330;2023-07-13T04:40:34;5.50;;;2.22;;
72941;SDS011;69665;55.822;37.330;2023-07-13T04:43:18;4.32;;;2.00;;
72941;SDS011;69665;55.822;37.330;2023-07-13T04:46:06;5.38;;;1.98;;
72941;SDS011;69665;55.822;37.330;2023-07-13T04:48:50;3.90;;;1.60;;
72941;SDS011;69665;55.822;37.330;2023-07-13T04:51:37;6.40;;;1.95;;
72941;SDS011;69665;55.822;37.330;2023-07-13T04:54:20;6.50;;;2.00;;
72941;SDS011;69665;55.822;37.330;2023-07-13T04:57:05;5.63;;;2.15;;
72941;SDS011;69665;55.822;37.330;2023-07-13T04:59:50;5.65;;;2.15;;
72941;SDS011;69665;55.822;37.330;2023-07-13T05:02:34;5.65;;;3.05;;
72941;SDS011;69665;55.822;37.330;2023-07-13T05:05:18;6.15;;;2.05;;
72941;SDS011;69665;55.822;37.330;2023-07-13T05:08:21;4.70;;;1.85;;
72941;SDS011;69665;55.822;37.330;2023-07-13T05:11:05;6.40;;;2.20;;
72941;SDS011;69665;55.822;37.330;2023-07-13T05:13:50;4.30;;;1.80;;
72941;SDS011;69665;55.822;37.330;2023-07-13T05:16:34;5.18;;;1.63;;
72941;SDS011;69665;55.822;37.330;2023-07-13T05:19:18;3.95;;;1.50;;
72941;SDS011;69665;55.822;37.330;2023-07-13T05:22:02;4.40;;;2.05;;
72941;SDS011;69665;55.822;37.330;2023-07-13T05:24:47;3.47;;;1.50;;
72941;SDS011;69665;55.822;37.330;2023-07-13T05:27:31;4.90;;;1.75;;
72941;SDS011;69665;55.822;37.330;2023-07-13T05:30:15;5.50;;;1.95;;
72941;SDS011;69665;55.822;37.330;2023-07-13T05:32:59;5.97;;;1.80;;
72941;SDS011;69665;55.822;37.330;2023-07-13T05:35:43;4.38;;;1.50;;
72941;SDS011;69665;55.822;37.330;2023-07-13T05:38:27;4.53;;;1.35;;
72941;SDS011;69665;55.822;37.330;2023-07-13T05:41:12;4.20;;;1.75;;
72941;SDS011;69665;55.822;37.330;2023-07-13T05:44:14;4.30;;;1.80;;
72941;SDS011;69665;55.822;37.330;2023-07-13T05:46:58;4.70;;;1.60;;
72941;SDS011;69665;55.822;37.330;2023-07-13T05:49:42;4.53;;;1.77;;
72941;SDS011;69665;55.822;37.330;2023-07-13T05:52:26;4.13;;;1.40;;
72941;SDS011;69665;55.822;37.330;2023-07-13T05:55:13;4.18;;;1.55;;
72941;SDS011;69665;55.822;37.330;2023-07-13T05:57:57;3.58;;;1.60;;
72941;SDS011;69665;55.822;37.330;2023-07-13T06:01:04;4.20;;;1.80;;
72941;SDS011;69665;55.822;37.330;2023-07-13T06:03:48;4.28;;;1.52;;
72941;SDS011;69665;55.822;37.330;2023-07-13T06:06:52;3.85;;;1.42;;
72941;SDS011;69665;55.822;37.330;2023-07-13T06:09:55;3.80;;;1.52;;
72941;SDS011;69665;55.822;37.330;2023-07-13T06:12:39;3.92;;;1.88;;
72941;SDS011;69665;55.822;37.330;2023-07-13T06:15:23;6.07;;;2.00;;
72941;SDS011;69665;55.822;37.330;2023-07-13T06:18:07;4.68;;;1.85;;
72941;SDS011;69665;55.822;37.330;2023-07-13T06:20:51;4.72;;;1.50;;
72941;SDS011;69665;55.822;37.330;2023-07-13T06:23:34;4.15;;;1.27;;
72941;SDS011;69665;55.822;37.330;2023-07-13T06:26:19;4.15;;;1.40;;
72941;SDS011;69665;55.822;37.330;2023-07-13T06:29:04;5.15;;;1.70;;
72941;SDS011;69665;55.822;37.330;2023-07-13T06:31:49;4.38;;;1.60;;
72941;SDS011;69665;55.822;37.330;2023-07-13T06:34:33;6.60;;;2.05;;
72941;SDS011;69665;55.822;37.330;2023-07-13T06:37:17;3.50;;;1.50;;
72941;SDS011;69665;55.822;37.330;2023-07-13T06:40:01;5.03;;;1.55;;
72941;SDS011;69665;55.822;37.330;2023-07-13T06:42:45;4.65;;;1.60;;
72941;SDS011;69665;55.822;37.330;2023-07-13T06:45:29;3.60;;;1.60;;
72941;SDS011;69665;55.822;37.330;2023-07-13T06:48:13;4.80;;;1.63;;
72941;SDS011;69665;55.822;37.330;2023-07-13T06:50:57;4.18;;;1.65;;
72941;SDS011;69665;55.822;37.330;2023-07-13T06:53:41;3.90;;;1.50;;
72941;SDS011;69665;55.822;37.330;2023-07-13T06:56:27;6.13;;;1.90;;
72941;SDS011;69665;55.822;37.330;2023-07-13T06:59:11;4.25;;;1.65;;
72941;SDS011;69665;55.822;37.330;2023-07-13T07:01:55;4.75;;;1.42;;
72941;SDS011;69665;55.822;37.330;2023-07-13T07:04:39;5.28;;;1.80;;
72941;SDS011;69665;55.822;37.330;2023-07-13T07:07:42;6.00;;;1.70;;
72941;SDS011;69665;55.822;37.330;2023-07-13T07:10:26;4.93;;;1.67;;
72941;SDS011;69665;55.822;37.330;2023-07-13T07:13:10;4.55;;;1.70;;
72941;SDS011;69665;55.822;37.330;2023-07-13T07:15:54;4.10;;;1.65;;
72941;SDS011;69665;55.822;37.330;2023-07-13T07:18:38;5.47;;;1.60;;
72941;SDS011;69665;55.822;37.330;2023-07-13T07:21:22;3.42;;;1.48;;
72941;SDS011;69665;55.822;37.330;2023-07-13T07:24:07;5.47;;;1.67;;
72941;SDS011;69665;55.822;37.330;2023-07-13T07:26:51;4.55;;;1.67;;
72941;SDS011;69665;55.822;37.330;2023-07-13T07:29:35;4.75;;;1.50;;
72941;SDS011;69665;55.822;37.330;2023-07-13T07:32:19;4.65;;;1.80;;
72941;SDS011;69665;55.822;37.330;2023-07-13T07:35:03;4.88;;;1.90;;
72941;SDS011;69665;55.822;37.330;2023-07-13T07:37:47;4.70;;;1.67;;
72941;SDS011;69665;55.822;37.330;2023-07-13T07:40:31;4.03;;;1.63;;
72941;SDS011;69665;55.822;37.330;2023-07-13T07:43:15;5.28;;;2.22;;
72941;SDS011;69665;55.822;37.330;2023-07-13T07:49:01;5.22;;;1.90;;
72941;SDS011;69665;55.822;37.330;2023-07-13T07:51:45;5.30;;;2.00;;
72941;SDS011;69665;55.822;37.330;2023-07-13T07:54:29;5.78;;;1.90;;
72941;SDS011;69665;55.822;37.330;2023-07-13T07:57:32;4.53;;;1.70;;
72941;SDS011;69665;55.822;37.330;2023-07-13T08:00:34;5.43;;;1.55;;
72941;SDS011;69665;55.822;37.330;2023-07-13T08:03:19;5.20;;;1.70;;
72941;SDS011;69665;55.822;37.330;2023-07-13T08:06:03;5.18;;;1.80;;
72941;SDS011;69665;55.822;37.330;2023-07-13T08:08:47;5.32;;;2.00;;
72941;SDS011;69665;55.822;37.330;2023-07-13T08:11:31;5.63;;;2.35;;
72941;SDS011;69665;55.822;37.330;2023-07-13T08:14:16;5.32;;;1.83;;
72941;SDS011;69665;55.822;37.330;2023-07-13T08:17:00;4.68;;;1.80;;
72941;SDS011;69665;55.822;37.330;2023-07-13T08:19:44;4.38;;;1.83;;
72941;SDS011;69665;55.822;37.330;2023-07-13T08:22:31;3.97;;;1.60;;
72941;SDS011;69665;55.822;37.330;2023-07-13T08:25:15;5.50;;;1.90;;
72941;SDS011;69665;55.822;37.330;2023-07-13T08:28:00;5.40;;;1.83;;
72941;SDS011;69665;55.822;37.330;2023-07-13T08:31:05;3.65;;;1.80;;
72941;SDS011;69665;55.822;37.330;2023-07-13T08:33:50;6.20;;;1.80;;
72941;SDS011;69665;55.822;37.330;2023-07-13T08:36:34;4.72;;;1.98;;
72941;SDS011;69665;55.822;37.330;2023-07-13T08:39:18;4.30;;;1.90;;
72941;SDS011;69665;55.822;37.330;2023-07-13T08:45:19;4.75;;;2.00;;
72941;SDS011;69665;55.822;37.330;2023-07-13T08:48:14;4.97;;;1.98;;
72941;SDS011;69665;55.822;37.330;2023-07-13T08:51:03;6.07;;;2.10;;
72941;SDS011;69665;55.822;37.330;2023-07-13T08:53:52;5.55;;;2.30;;
72941;SDS011;69665;55.822;37.330;2023-07-13T08:56:38;5.93;;;2.05;;
72941;SDS011;69665;55.822;37.330;2023-07-13T08:59:26;4.90;;;2.13;;
72941;SDS011;69665;55.822;37.330;2023-07-13T09:02:27;5.25;;;2.08;;
72941;SDS011;69665;55.822;37.330;2023-07-13T09:10:46;5.25;;;2.45;;
72941;SDS011;69665;55.822;37.330;2023-07-13T09:13:34;6.07;;;2.00;;
72941;SDS011;69665;55.822;37.330;2023-07-13T09:16:20;5.90;;;2.65;;
72941;SDS011;69665;55.822;37.330;2023-07-13T09:19:06;6.22;;;2.67;;
72941;SDS011;69665;55.822;37.330;2023-07-13T09:22:28;5.13;;;2.10;;
72941;SDS011;69665;55.822;37.330;2023-07-13T09:25:23;6.75;;;2.38;;
72941;SDS011;69665;55.822;37.330;2023-07-13T09:28:10;6.82;;;1.88;;
72941;SDS011;69665;55.822;37.330;2023-07-13T09:31:11;6.60;;;2.40;;
72941;SDS011;69665;55.822;37.330;2023-07-13T09:33:57;5.78;;;2.53;;
72941;SDS011;69665;55.822;37.330;2023-07-13T09:36:42;5.35;;;2.20;;
72941;SDS011;69665;55.822;37.330;2023-07-13T09:39:39;5.13;;;2.30;;
72941;SDS011;69665;55.822;37.330;2023-07-13T09:42:43;7.07;;;2.90;;
72941;SDS011;69665;55.822;37.330;2023-07-13T09:45:46;5.80;;;2.60;;
72941;SDS011;69665;55.822;37.330;2023-07-13T09:48:34;5.30;;;2.33;;
72941;SDS011;69665;55.822;37.330;2023-07-13T09:51:19;5.25;;;2.28;;
72941;SDS011;69665;55.822;37.330;2023-07-13T09:54:03;7.63;;;2.92;;
72941;SDS011;69665;55.822;37.330;2023-07-13T09:56:47;6.03;;;2.22;;
72941;SDS011;69665;55.822;37.330;2023-07-13T09:59:32;6.60;;;2.20;;
72941;SDS011;69665;55.822;37.330;2023-07-13T10:02:27;6.20;;;2.60;;
72941;SDS011;69665;55.822;37.330;2023-07-13T10:05:13;6.70;;;3.03;;
72941;SDS011;69665;55.822;37.330;2023-07-13T10:07:58;10.93;;;2.95;;
72941;SDS011;69665;55.822;37.330;2023-07-13T10:10:41;7.22;;;3.28;;
72941;SDS011;69665;55.822;37.330;2023-07-13T10:13:51;7.75;;;2.90;;
72941;SDS011;69665;55.822;37.330;2023-07-13T10:16:36;6.03;;;2.47;;
72941;SDS011;69665;55.822;37.330;2023-07-13T10:19:27;6.55;;;2.63;;
72941;SDS011;69665;55.822;37.330;2023-07-13T10:22:25;5.55;;;2.78;;
72941;SDS011;69665;55.822;37.330;2023-07-13T10:25:34;6.45;;;2.17;;
72941;SDS011;69665;55.822;37.330;2023-07-13T10:28:25;10.15;;;3.05;;
72941;SDS011;69665;55.822;37.330;2023-07-13T10:31:14;8.27;;;2.95;;
72941;SDS011;69665;55.822;37.330;2023-07-13T10:33:58;6.55;;;3.08;;
72941;SDS011;69665;55.822;37.330;2023-07-13T10:36:43;9.10;;;2.90;;
72941;SDS011;69665;55.822;37.330;2023-07-13T10:39:27;8.90;;;3.05;;
72941;SDS011;69665;55.822;37.330;2023-07-13T10:42:13;6.72;;;3.38;;
72941;SDS011;69665;55.822;37.330;2023-07-13T10:44:58;6.88;;;3.03;;
72941;SDS011;69665;55.822;37.330;2023-07-13T10:47:43;7.00;;;3.45;;
72941;SDS011;69665;55.822;37.330;2023-07-13T10:50:27;7.07;;;2.92;;
72941;SDS011;69665;55.822;37.330;2023-07-13T10:53:18;7.50;;;3.05;;
72941;SDS011;69665;55.822;37.330;2023-07-13T10:56:26;8.57;;;3.28;;
72941;SDS011;69665;55.822;37.330;2023-07-13T11:02:00;7.75;;;3.20;;
72941;SDS011;69665;55.822;37.330;2023-07-13T11:04:49;10.48;;;3.83;;
72941;SDS011;69665;55.822;37.330;2023-07-13T11:07:52;6.63;;;2.92;;
72941;SDS011;69665;55.822;37.330;2023-07-13T11:25:01;8.85;;;3.47;;
72941;SDS011;69665;55.822;37.330;2023-07-13T11:36:44;9.77;;;3.47;;
72941;SDS011;69665;55.822;37.330;2023-07-13T11:39:35;6.63;;;3.25;;
72941;SDS011;69665;55.822;37.330;2023-07-13T11:42:20;7.85;;;3.45;;
72941;SDS011;69665;55.822;37.330;2023-07-13T11:45:14;7.65;;;2.97;;
72941;SDS011;69665;55.822;37.330;2023-07-13T11:48:01;7.70;;;3.55;;
72941;SDS011;69665;55.822;37.330;2023-07-13T11:50:49;10.90;;;3.88;;
72941;SDS011;69665;55.822;37.330;2023-07-13T11:53:37;9.00;;;3.65;;
72941;SDS011;69665;55.822;37.330;2023-07-13T11:56:22;9.07;;;3.70;;
72941;SDS011;69665;55.822;37.330;2023-07-13T11:59:07;8.40;;;3.72;;
72941;SDS011;69665;55.822;37.330;2023-07-13T12:01:54;9.23;;;3.88;;
72941;SDS011;69665;55.822;37.330;2023-07-13T12:04:38;7.75;;;3.47;;
72941;SDS011;69665;55.822;37.330;2023-07-13T12:07:22;8.75;;;3.78;;
72941;SDS011;69665;55.822;37.330;2023-07-13T12:15:38;6.72;;;3.00;;
72941;SDS011;69665;55.822;37.330;2023-07-13T12:18:23;8.35;;;3.33;;
72941;SDS011;69665;55.822;37.330;2023-07-13T12:21:13;7.05;;;3.47;;
72941;SDS011;69665;55.822;37.330;2023-07-13T12:24:00;7.60;;;3.15;;
72941;SDS011;69665;55.822;37.330;2023-07-13T12:26:50;9.93;;;3.28;;
72941;SDS011;69665;55.822;37.330;2023-07-13T12:29:35;9.00;;;3.38;;
72941;SDS011;69665;55.822;37.330;2023-07-13T12:32:19;8.07;;;3.65;;
72941;SDS011;69665;55.822;37.330;2023-07-13T12:35:22;7.43;;;3.38;;
72941;SDS011;69665;55.822;37.330;2023-07-13T12:38:07;7.13;;;3.30;;
72941;SDS011;69665;55.822;37.330;2023-07-13T12:40:52;7.22;;;3.28;;
72941;SDS011;69665;55.822;37.330;2023-07-13T12:43:39;7.40;;;3.55;;
72941;SDS011;69665;55.822;37.330;2023-07-13T12:46:23;9.43;;;3.35;;
72941;SDS011;69665;55.822;37.330;2023-07-13T12:49:08;8.52;;;4.35;;
72941;SDS011;69665;55.822;37.330;2023-07-13T12:51:55;6.18;;;3.20;;
72941;SDS011;69665;55.822;37.330;2023-07-13T12:54:40;8.15;;;3.90;;
72941;SDS011;69665;55.822;37.330;2023-07-13T12:57:24;6.60;;;2.85;;
72941;SDS011;69665;55.822;37.330;2023-07-13T13:00:19;7.75;;;3.00;;
72941;SDS011;69665;55.822;37.330;2023-07-13T13:09:11;7.70;;;2.92;;
72941;SDS011;69665;55.822;37.330;2023-07-13T13:11:56;6.55;;;3.15;;
72941;SDS011;69665;55.822;37.330;2023-07-13T13:14:40;7.40;;;3.00;;
72941;SDS011;69665;55.822;37.330;2023-07-13T13:17:24;7.93;;;3.00;;
72941;SDS011;69665;55.822;37.330;2023-07-13T13:20:18;7.43;;;3.65;;
72941;SDS011;69665;55.822;37.330;2023-07-13T13:23:04;7.07;;;3.63;;
72941;SDS011;69665;55.822;37.330;2023-07-13T13:25:49;9.43;;;3.38;;
72941;SDS011;69665;55.822;37.330;2023-07-13T13:28:34;8.05;;;3.75;;
72941;SDS011;69665;55.822;37.330;2023-07-13T13:31:18;8.07;;;3.58;;
72941;SDS011;69665;55.822;37.330;2023-07-13T13:34:22;9.82;;;3.97;;
72941;SDS011;69665;55.822;37.330;2023-07-13T13:37:23;9.65;;;4.03;;
72941;SDS011;69665;55.822;37.330;2023-07-13T13:40:17;8.20;;;3.28;;
72941;SDS011;69665;55.822;37.330;2023-07-13T13:43:01;8.93;;;3.60;;
72941;SDS011;69665;55.822;37.330;2023-07-13T13:45:45;11.10;;;3.45;;
72941;SDS011;69665;55.822;37.330;2023-07-13T13:48:33;9.07;;;3.92;;
72941;SDS011;69665;55.822;37.330;2023-07-13T13:51:21;9.30;;;4.03;;
72941;SDS011;69665;55.822;37.330;2023-07-13T13:54:09;7.97;;;3.83;;
72941;SDS011;69665;55.822;37.330;2023-07-13T13:59:39;8.90;;;3.65;;
72941;SDS011;69665;55.822;37.330;2023-07-13T14:02:27;10.23;;;3.83;;
72941;SDS011;69665;55.822;37.330;2023-07-13T14:05:12;7.72;;;3.35;;
72941;SDS011;69665;55.822;37.330;2023-07-13T14:07:56;9.38;;;4.25;;
72941;SDS011;69665;55.822;37.330;2023-07-13T14:10:41;9.45;;;4.47;;
72941;SDS011;69665;55.822;37.330;2023-07-13T14:13:26;9.20;;;4.05;;
72941;SDS011;69665;55.822;37.330;2023-07-13T14:16:13;14.25;;;5.20;;
72941;SDS011;69665;55.822;37.330;2023-07-13T14:18:59;10.60;;;4.47;;
72941;SDS011;69665;55.822;37.330;2023-07-13T14:21:44;10.32;;;4.50;;
72941;SDS011;69665;55.822;37.330;2023-07-13T14:24:47;12.77;;;5.70;;
72941;SDS011;69665;55.822;37.330;2023-07-13T14:27:31;13.20;;;6.78;;
72941;SDS011;69665;55.822;37.330;2023-07-13T14:30:17;11.98;;;5.13;;
72941;SDS011;69665;55.822;37.330;2023-07-13T14:33:01;9.63;;;5.07;;
72941;SDS011;69665;55.822;37.330;2023-07-13T14:35:45;10.60;;;4.53;;
72941;SDS011;69665;55.822;37.330;2023-07-13T14:38:29;9.52;;;4.50;;
72941;SDS011;69665;55.822;37.330;2023-07-13T14:41:13;9.85;;;4.43;;
72941;SDS011;69665;55.822;37.330;2023-07-13T14:43:57;7.95;;;3.80;;
72941;SDS011;69665;55.822;37.330;2023-07-13T14:46:41;9.02;;;4.18;;
72941;SDS011;69665;55.822;37.330;2023-07-13T14:49:30;7.32;;;3.42;;
72941;SDS011;69665;55.822;37.330;2023-07-13T14:52:17;8.88;;;3.40;;
72941;SDS011;69665;55.822;37.330;2023-07-13T14:55:01;7.35;;;3.58;;
72941;SDS011;69665;55.822;37.330;2023-07-13T14:58:04;8.48;;;4.53;;
72941;SDS011;69665;55.822;37.330;2023-07-13T15:00:48;13.32;;;6.05;;
72941;SDS011;69665;55.822;37.330;2023-07-13T15:03:34;9.90;;;4.28;;
72941;SDS011;69665;55.822;37.330;2023-07-13T15:06:18;9.77;;;3.90;;
72941;SDS011;69665;55.822;37.330;2023-07-13T15:09:03;8.88;;;3.42;;
72941;SDS011;69665;55.822;37.330;2023-07-13T15:11:47;11.10;;;4.22;;
72941;SDS011;69665;55.822;37.330;2023-07-13T15:14:31;10.52;;;3.75;;
72941;SDS011;69665;55.822;37.330;2023-07-13T15:17:21;9.43;;;3.65;;
72941;SDS011;69665;55.822;37.330;2023-07-13T15:20:06;8.60;;;3.30;;
72941;SDS011;69665;55.822;37.330;2023-07-13T15:22:54;9.25;;;3.20;;
72941;SDS011;69665;55.822;37.330;2023-07-13T15:25:58;10.93;;;4.13;;
72941;SDS011;69665;55.822;37.330;2023-07-13T15:28:42;10.50;;;4.03;;
72941;SDS011;69665;55.822;37.330;2023-07-13T15:31:27;10.90;;;4.30;;
72941;SDS011;69665;55.822;37.330;2023-07-13T15:34:15;11.00;;;3.88;;
72941;SDS011;69665;55.822;37.330;2023-07-13T15:37:00;8.77;;;3.88;;
72941;SDS011;69665;55.822;37.330;2023-07-13T15:39:44;8.57;;;3.85;;
72941;SDS011;69665;55.822;37.330;2023-07-13T15:42:29;8.13;;;3.80;;
72941;SDS011;69665;55.822;37.330;2023-07-13T15:48:00;7.72;;;3.25;;
72941;SDS011;69665;55.822;37.330;2023-07-13T15:50:45;8.32;;;3.45;;
72941;SDS011;69665;55.822;37.330;2023-07-13T15:53:50;10.13;;;3.80;;
72941;SDS011;69665;55.822;37.330;2023-07-13T15:56:37;8.45;;;3.60;;
72941;SDS011;69665;55.822;37.330;2023-07-13T15:59:24;8.65;;;3.83;;
72941;SDS011;69665;55.822;37.330;2023-07-13T16:02:17;8.13;;;3.45;;
72941;SDS011;69665;55.822;37.330;2023-07-13T16:05:01;7.70;;;3.40;;
72941;SDS011;69665;55.822;37.330;2023-07-13T16:07:45;8.48;;;3.92;;
72941;SDS011;69665;55.822;37.330;2023-07-13T16:13:16;7.50;;;3.95;;
72941;SDS011;69665;55.822;37.330;2023-07-13T16:16:06;11.88;;;3.92;;
72941;SDS011;69665;55.822;37.330;2023-07-13T16:18:52;10.02;;;4.50;;
72941;SDS011;69665;55.822;37.330;2023-07-13T16:21:40;11.05;;;4.10;;
72941;SDS011;69665;55.822;37.330;2023-07-13T16:24:27;11.07;;;4.40;;
72941;SDS011;69665;55.822;37.330;2023-07-13T16:27:30;11.23;;;4.30;;
72941;SDS011;69665;55.822;37.330;2023-07-13T16:30:18;9.45;;;4.45;;
72941;SDS011;69665;55.822;37.330;2023-07-13T16:33:05;10.68;;;5.10;;
72941;SDS011;69665;55.822;37.330;2023-07-13T16:35:50;10.55;;;4.45;;
72941;SDS011;69665;55.822;37.330;2023-07-13T16:38:55;10.52;;;4.72;;
72941;SDS011;69665;55.822;37.330;2023-07-13T16:41:39;10.30;;;4.78;;
72941;SDS011;69665;55.822;37.330;2023-07-13T16:44:23;11.65;;;5.25;;
72941;SDS011;69665;55.822;37.330;2023-07-13T16:47:11;13.57;;;5.55;;
72941;SDS011;69665;55.822;37.330;2023-07-13T16:50:15;14.50;;;6.22;;
72941;SDS011;69665;55.822;37.330;2023-07-13T16:53:00;18.60;;;9.05;;
72941;SDS011;69665;55.822;37.330;2023-07-13T16:55:49;17.15;;;8.38;;
72941;SDS011;69665;55.822;37.330;2023-07-13T16:58:33;17.65;;;8.88;;
72941;SDS011;69665;55.822;37.330;2023-07-13T17:01:37;15.65;;;7.93;;
72941;SDS011;69665;55.822;37.330;2023-07-13T17:04:21;17.63;;;8.07;;
72941;SDS011;69665;55.822;37.330;2023-07-13T17:07:07;16.55;;;7.05;;
72941;SDS011;69665;55.822;37.330;2023-07-13T17:09:52;15.57;;;7.25;;
72941;SDS011;69665;55.822;37.330;2023-07-13T17:12:37;11.00;;;5.90;;
72941;SDS011;69665;55.822;37.330;2023-07-13T17:15:24;16.45;;;5.90;;
72941;SDS011;69665;55.822;37.330;2023-07-13T17:21:19;13.02;;;5.72;;
72941;SDS011;69665;55.822;37.330;2023-07-13T17:24:07;10.90;;;4.88;;
72941;SDS011;69665;55.822;37.330;2023-07-13T17:26:52;12.02;;;5.40;;
72941;SDS011;69665;55.822;37.330;2023-07-13T17:29:38;13.07;;;5.85;;
72941;SDS011;69665;55.822;37.330;2023-07-13T17:32:22;10.70;;;5.20;;
72941;SDS011;69665;55.822;37.330;2023-07-13T17:38:20;11.75;;;5.78;;
72941;SDS011;69665;55.822;37.330;2023-07-13T17:41:04;13.45;;;5.78;;
72941;SDS011;69665;55.822;37.330;2023-07-13T17:43:48;12.80;;;6.15;;